createdAt,value
2018-02-22T00:01:30.349Z,102102.72
2018-02-22T00:03:58.466Z,102104.87
2018-02-22T00:06:26.579Z,102102.05
2018-02-22T00:08:54.709Z,102109.66
2018-02-22T00:11:22.841Z,102097.72
2018-02-22T00:13:50.969Z,102096.27
2018-02-22T00:16:19.072Z,102093.88
2018-02-22T00:18:47.198Z,102093.23
2018-02-22T00:21:15.306Z,102086.07
2018-02-22T00:23:43.421Z,102080.98
2018-02-22T00:26:11.542Z,102077.91
2018-02-22T00:28:39.651Z,102077.66
2018-02-22T00:31:07.762Z,102077.67
2018-02-22T00:33:35.895Z,102078.13
2018-02-22T00:36:03.992Z,102075.70
2018-02-22T00:38:32.226Z,102071.14
2018-02-22T00:41:00.361Z,102073.91
2018-02-22T00:43:28.474Z,102073.64
2018-02-22T00:45:56.589Z,102076.36
2018-02-22T00:48:24.687Z,102076.99
2018-02-22T00:50:52.836Z,102074.44
2018-02-22T00:53:20.960Z,102071.06
2018-02-22T00:55:49.071Z,102073.69
2018-02-22T00:58:17.186Z,102066.77
2018-02-22T01:00:45.300Z,102069.29
2018-02-22T01:03:13.428Z,102075.40
2018-02-22T01:05:41.553Z,102078.41
2018-02-22T01:08:09.654Z,102075.61
2018-02-22T01:10:37.782Z,102087.41
2018-02-22T01:13:05.901Z,102086.12
2018-02-22T01:15:34.026Z,102072.02
2018-02-22T01:18:02.125Z,102078.63
2018-02-22T01:20:30.253Z,102078.25
2018-02-22T01:22:58.384Z,102068.17
2018-02-22T01:25:26.505Z,102070.44
2018-02-22T01:27:54.631Z,102074.78
2018-02-22T01:30:22.753Z,102065.67
2018-02-22T01:32:50.870Z,102070.75
2018-02-22T01:35:18.983Z,102067.41
2018-02-22T01:37:47.127Z,102066.98
2018-02-22T01:40:15.236Z,102069.87
2018-02-22T01:42:43.360Z,102060.42
2018-02-22T01:45:11.490Z,102066.34
2018-02-22T01:47:39.599Z,102061.99
2018-02-22T01:50:07.743Z,102062.78
2018-02-22T01:52:35.869Z,102052.17
2018-02-22T01:55:03.993Z,102058.03
2018-02-22T01:57:32.128Z,102049.91
2018-02-22T02:00:00.272Z,102045.55
2018-02-22T02:02:28.388Z,102050.63
2018-02-22T02:04:56.521Z,102050.04
2018-02-22T02:07:24.634Z,102045.84
2018-02-22T02:09:52.752Z,102043.56
2018-02-22T02:12:20.887Z,102045.80
2018-02-22T02:14:49.006Z,102046.02
2018-02-22T02:17:17.205Z,102041.22
2018-02-22T02:19:45.331Z,102052.19
2018-02-22T02:22:13.576Z,102049.70
2018-02-22T02:24:41.866Z,102049.45
2018-02-22T02:27:10.033Z,102050.70
2018-02-22T02:29:38.177Z,102044.46
2018-02-22T02:32:06.316Z,102046.95
2018-02-22T02:34:34.441Z,102040.94
2018-02-22T02:37:02.582Z,102040.18
2018-02-22T02:39:30.680Z,102032.89
2018-02-22T02:41:58.845Z,102029.95
2018-02-22T02:44:26.962Z,102033.06
2018-02-22T02:46:55.124Z,102032.17
2018-02-22T02:49:23.285Z,102033.77
2018-02-22T02:51:51.409Z,102033.72
2018-02-22T02:54:19.526Z,102026.86
2018-02-22T02:56:47.664Z,102033.55
2018-02-22T02:59:15.789Z,102027.37
2018-02-22T03:01:43.907Z,102023.34
2018-02-22T03:04:12.019Z,102021.63
2018-02-22T03:06:40.135Z,102025.39
2018-02-22T03:09:08.250Z,102027.88
2018-02-22T03:11:36.381Z,102022.91
2018-02-22T03:14:04.521Z,102030.26
2018-02-22T03:16:32.631Z,102029.22
2018-02-22T03:19:00.744Z,102016.17
2018-02-22T03:21:28.870Z,102016.05
2018-02-22T03:23:57.001Z,102018.61
2018-02-22T03:26:25.123Z,102020.02
2018-02-22T03:28:53.254Z,102016.32
2018-02-22T03:31:21.381Z,102012.23
2018-02-22T03:33:49.483Z,102016.63
2018-02-22T03:36:17.610Z,102012.00
2018-02-22T03:38:45.745Z,102014.50
2018-02-22T03:41:13.869Z,102021.40
2018-02-22T03:43:42.015Z,102020.97
2018-02-22T03:46:10.142Z,102024.00
2018-02-22T03:48:38.557Z,102016.62
2018-02-22T03:51:06.656Z,102015.20
2018-02-22T03:53:34.850Z,102015.90
2018-02-22T03:56:02.982Z,102015.59
2018-02-22T03:58:31.095Z,102022.91
2018-02-22T04:00:59.220Z,102021.83
2018-02-22T04:03:27.348Z,102022.93
2018-02-22T04:05:55.482Z,102021.72
2018-02-22T04:08:23.609Z,102017.32
2018-02-22T04:10:51.725Z,102021.06
2018-02-22T04:13:20.334Z,102020.66
2018-02-22T04:15:48.441Z,102022.73
2018-02-22T04:18:18.463Z,102025.16
2018-02-22T04:20:46.575Z,102026.14
2018-02-22T04:23:14.707Z,102027.44
2018-02-22T04:25:42.829Z,102032.33
2018-02-22T04:28:10.931Z,102031.19
2018-02-22T04:30:39.053Z,102030.31
2018-02-22T04:33:07.172Z,102030.31
2018-02-22T04:35:35.316Z,102029.95
2018-02-22T04:38:03.436Z,102028.05
2018-02-22T04:40:31.539Z,102028.81
2018-02-22T04:42:59.685Z,102030.66
2018-02-22T04:45:27.790Z,102030.23
2018-02-22T04:47:55.946Z,102035.61
2018-02-22T04:50:24.066Z,102035.91
2018-02-22T04:52:52.173Z,102034.36
2018-02-22T04:55:20.284Z,102032.63
2018-02-22T04:57:48.386Z,102033.69
2018-02-22T05:00:16.503Z,102036.13
2018-02-22T05:02:44.607Z,102037.97
2018-02-22T05:05:12.719Z,102037.68
2018-02-22T05:07:40.842Z,102038.78
2018-02-22T05:10:09.116Z,102044.80
2018-02-22T05:12:37.215Z,102047.25
2018-02-22T05:15:05.373Z,102045.20
2018-02-22T05:17:33.494Z,102040.77
2018-02-22T05:20:01.623Z,102043.06
2018-02-22T05:22:29.749Z,102046.11
2018-02-22T05:24:57.890Z,102042.45
2018-02-22T05:27:25.993Z,102048.27
2018-02-22T05:29:54.137Z,102050.92
2018-02-22T05:32:23.154Z,102057.42
2018-02-22T05:34:51.283Z,102057.79
2018-02-22T05:37:22.446Z,102060.17
2018-02-22T05:39:50.575Z,102055.34
2018-02-22T05:42:18.698Z,102060.66
2018-02-22T05:44:46.808Z,102057.37
2018-02-22T05:47:14.934Z,102054.05
2018-02-22T05:49:43.061Z,102058.50
2018-02-22T05:52:11.167Z,102063.66
2018-02-22T05:54:39.274Z,102065.88
2018-02-22T05:57:07.437Z,102061.17
2018-02-22T05:59:35.539Z,102057.30
2018-02-22T06:02:03.674Z,102067.81
2018-02-22T06:04:31.798Z,102064.32
2018-02-22T06:06:59.910Z,102064.22
2018-02-22T06:09:28.045Z,102069.66
2018-02-22T06:11:56.168Z,102072.17
2018-02-22T06:14:24.301Z,102068.09
2018-02-22T06:16:52.424Z,102072.28
2018-02-22T06:19:20.580Z,102077.87
2018-02-22T06:21:48.702Z,102079.00
2018-02-22T06:24:16.854Z,102073.68
2018-02-22T06:26:44.974Z,102076.59
2018-02-22T06:29:13.110Z,102076.86
2018-02-22T06:31:41.265Z,102077.02
2018-02-22T06:34:09.395Z,102079.46
2018-02-22T06:36:37.509Z,102086.44
2018-02-22T06:39:05.646Z,102086.38
2018-02-22T06:41:33.766Z,102089.32
2018-02-22T06:44:01.902Z,102092.91
2018-02-22T06:46:30.011Z,102091.50
2018-02-22T06:48:58.134Z,102093.84
2018-02-22T06:51:26.276Z,102098.63
2018-02-22T06:53:54.375Z,102092.08
2018-02-22T06:56:22.498Z,102086.30
2018-02-22T06:58:50.633Z,102095.28
2018-02-22T07:01:18.767Z,102096.38
2018-02-22T07:03:46.874Z,102091.81
2018-02-22T07:06:18.300Z,102087.37
2018-02-22T07:08:46.420Z,102094.78
2018-02-22T07:11:14.552Z,102087.54
2018-02-22T07:13:42.685Z,102098.61
2018-02-22T07:16:10.797Z,102090.83
2018-02-22T07:18:38.916Z,102091.98
2018-02-22T07:21:07.072Z,102090.36
2018-02-22T07:23:35.210Z,102093.98
2018-02-22T07:26:03.332Z,102093.25
2018-02-22T07:28:31.485Z,102092.38
2018-02-22T07:30:59.593Z,102095.91
2018-02-22T07:33:27.758Z,102102.15
2018-02-22T07:35:55.890Z,102097.34
2018-02-22T07:38:24.011Z,102094.93
2018-02-22T07:40:52.254Z,102097.78
2018-02-22T07:43:20.385Z,102086.89
2018-02-22T07:45:48.503Z,102093.91
2018-02-22T07:48:16.623Z,102091.78
2018-02-22T07:50:44.745Z,102094.60
2018-02-22T07:53:12.865Z,102096.54
2018-02-22T07:55:40.997Z,102092.74
2018-02-22T07:58:09.120Z,102096.09
2018-02-22T08:00:37.260Z,102097.83
2018-02-22T08:03:05.378Z,102096.95
2018-02-22T08:05:33.492Z,102099.06
2018-02-22T08:08:01.616Z,102097.62
2018-02-22T08:10:29.736Z,102099.69
2018-02-22T08:12:57.871Z,102097.66
2018-02-22T08:15:26.022Z,102103.27
2018-02-22T08:17:54.195Z,102106.48
2018-02-22T08:20:22.330Z,102100.67
2018-02-22T08:22:50.471Z,102105.50
2018-02-22T08:25:18.587Z,102109.77
2018-02-22T08:27:46.729Z,102107.30
2018-02-22T08:30:14.880Z,102105.48
2018-02-22T08:32:43.071Z,102104.92
2018-02-22T08:35:11.172Z,102106.84
2018-02-22T08:37:39.299Z,102102.59
2018-02-22T08:40:07.605Z,102096.59
2018-02-22T08:42:35.938Z,102098.48
2018-02-22T08:45:04.055Z,102103.38
2018-02-22T08:47:32.181Z,102101.00
2018-02-22T08:50:00.294Z,102097.22
2018-02-22T08:52:31.504Z,102095.38
2018-02-22T08:54:59.622Z,102101.42
2018-02-22T08:57:27.741Z,102101.62
2018-02-22T08:59:55.864Z,102096.35
2018-02-22T09:02:23.981Z,102100.75
2018-02-22T09:04:52.113Z,102102.62
2018-02-22T09:07:20.244Z,102101.82
2018-02-22T09:09:48.396Z,102106.16
2018-02-22T09:12:16.524Z,102100.24
2018-02-22T09:14:44.630Z,102104.10
2018-02-22T09:17:12.764Z,102103.88
2018-02-22T09:19:40.906Z,102100.59
2018-02-22T09:22:09.022Z,102094.57
2018-02-22T09:24:37.164Z,102087.95
2018-02-22T09:27:05.281Z,102087.13
2018-02-22T09:29:33.384Z,102079.98
2018-02-22T09:32:01.535Z,102069.06
2018-02-22T09:34:29.640Z,102079.56
2018-02-22T09:36:57.777Z,102074.69
2018-02-22T09:39:25.896Z,102079.44
2018-02-22T09:41:54.030Z,102078.16
2018-02-22T09:44:22.140Z,102070.81
2018-02-22T09:46:50.275Z,102075.22
2018-02-22T09:49:18.376Z,102076.28
2018-02-22T09:51:46.538Z,102069.62
2018-02-22T09:54:14.655Z,102079.95
2018-02-22T09:56:45.983Z,102074.31
2018-02-22T09:59:14.133Z,102092.00
2018-02-22T10:01:42.321Z,102076.98
2018-02-22T10:04:10.412Z,102072.72
2018-02-22T10:06:38.539Z,102077.92
2018-02-22T10:09:06.659Z,102078.26
2018-02-22T10:11:34.762Z,102069.78
2018-02-22T10:14:02.907Z,102069.38
2018-02-22T10:16:31.043Z,102075.38
2018-02-22T10:18:59.223Z,102073.52
2018-02-22T10:21:27.361Z,102067.59
2018-02-22T10:23:55.501Z,102065.78
2018-02-22T10:26:23.618Z,102061.80
2018-02-22T10:28:51.752Z,102073.30
2018-02-22T10:31:23.088Z,102065.98
2018-02-22T10:33:51.239Z,102090.09
2018-02-22T10:36:19.388Z,102073.84
2018-02-22T10:38:47.521Z,102063.17
2018-02-22T10:41:15.678Z,102063.45
2018-02-22T10:43:43.899Z,102061.30
2018-02-22T10:46:12.121Z,102062.72
2018-02-22T10:48:40.236Z,102052.19
2018-02-22T10:51:08.400Z,102060.52
2018-02-22T10:53:36.529Z,102053.78
2018-02-22T10:56:06.577Z,102041.98
2018-02-22T10:58:34.720Z,102042.50
2018-02-22T11:01:08.373Z,102039.49
2018-02-22T11:03:37.420Z,102039.28
2018-02-22T11:06:05.551Z,102039.25
2018-02-22T11:08:33.672Z,102046.53
2018-02-22T11:11:01.796Z,102045.37
2018-02-22T11:13:29.958Z,102037.16
2018-02-22T11:16:01.072Z,102037.37
2018-02-22T11:18:29.204Z,102031.78
2018-02-22T11:20:57.341Z,102040.83
2018-02-22T11:23:25.465Z,102034.48
2018-02-22T11:25:53.600Z,102037.72
2018-02-22T11:28:21.717Z,102021.35
2018-02-22T11:30:49.934Z,102031.73
2018-02-22T11:33:18.050Z,102023.42
2018-02-22T11:35:46.171Z,102024.47
2018-02-22T11:38:14.305Z,102016.74
2018-02-22T11:40:42.417Z,102027.86
2018-02-22T11:43:10.584Z,102022.87
2018-02-22T11:45:38.715Z,102016.79
2018-02-22T11:48:06.857Z,102022.59
2018-02-22T11:50:34.988Z,102020.88
2018-02-22T11:53:03.118Z,102014.58
2018-02-22T11:55:31.223Z,102022.02
2018-02-22T11:57:59.343Z,102008.64
2018-02-22T12:00:27.474Z,102009.30
2018-02-22T12:02:55.596Z,101986.62
2018-02-22T12:05:23.717Z,101988.86
2018-02-22T12:07:51.838Z,101988.78
2018-02-22T12:10:23.180Z,101986.82
2018-02-22T12:12:51.283Z,101982.84
2018-02-22T12:15:19.418Z,101979.29
2018-02-22T12:17:47.536Z,101990.03
2018-02-22T12:20:15.656Z,101994.50
2018-02-22T12:22:43.806Z,101981.05
2018-02-22T12:25:11.903Z,101977.16
2018-02-22T12:27:40.029Z,101963.52
2018-02-22T12:30:08.179Z,101973.88
2018-02-22T12:32:36.279Z,101967.54
2018-02-22T12:35:05.337Z,101968.95
2018-02-22T12:37:33.459Z,101959.35
2018-02-22T12:40:01.579Z,101966.20
2018-02-22T12:42:29.750Z,101954.25
2018-02-22T12:44:57.859Z,101949.90
2018-02-22T12:47:25.959Z,101943.03
2018-02-22T12:49:54.091Z,101939.05
2018-02-22T12:52:22.278Z,101953.05
2018-02-22T12:54:50.399Z,101929.17
2018-02-22T12:57:18.505Z,101931.06
2018-02-22T12:59:46.637Z,101939.38
2018-02-22T13:02:14.759Z,101923.38
2018-02-22T13:04:42.870Z,101924.52
2018-02-22T13:07:10.996Z,101924.98
2018-02-22T13:09:39.097Z,101914.75
2018-02-22T13:12:07.350Z,101923.51
2018-02-22T13:14:35.477Z,101904.11
2018-02-22T13:17:03.587Z,101911.41
2018-02-22T13:19:31.706Z,101911.02
2018-02-22T13:21:59.801Z,101902.71
2018-02-22T13:24:27.908Z,101895.47
2018-02-22T13:26:56.033Z,101895.05
2018-02-22T13:29:24.165Z,101899.66
2018-02-22T13:31:52.913Z,101886.77
2018-02-22T13:34:35.910Z,101883.80
2018-02-22T13:37:15.985Z,101892.11
2018-02-22T13:39:44.102Z,101881.84
2018-02-22T13:42:12.239Z,101883.70
2018-02-22T13:44:52.322Z,101880.15
2018-02-22T13:47:20.455Z,101885.73
2018-02-22T13:50:00.560Z,101867.98
2018-02-22T13:52:28.745Z,101868.20
2018-02-22T13:54:56.857Z,101865.48
2018-02-22T13:57:24.979Z,101858.12
2018-02-22T13:59:53.091Z,101860.48
2018-02-22T14:02:24.599Z,101867.79
2018-02-22T14:04:52.720Z,101848.12
2018-02-22T14:07:20.836Z,101849.08
2018-02-22T14:09:48.942Z,101847.01
2018-02-22T14:12:17.065Z,101837.91
2018-02-22T14:14:45.195Z,101842.69
2018-02-22T14:17:13.363Z,101830.23
2018-02-22T14:19:41.436Z,101839.25
2018-02-22T14:22:09.539Z,101842.75
2018-02-22T14:24:37.644Z,101838.16
2018-02-22T14:27:05.791Z,101824.05
2018-02-22T14:29:33.888Z,101836.75
2018-02-22T14:32:01.991Z,101837.44
2018-02-22T14:34:30.633Z,101829.42
2018-02-22T14:36:58.730Z,101839.50
2018-02-22T14:39:26.845Z,101828.82
2018-02-22T14:41:54.978Z,101822.64
2018-02-22T14:44:23.073Z,101817.30
2018-02-22T14:46:51.187Z,101830.81
2018-02-22T14:49:19.309Z,101826.41
2018-02-22T14:51:47.450Z,101820.82
2018-02-22T14:54:15.565Z,101819.80
2018-02-22T14:56:43.664Z,101822.72
2018-02-22T14:59:13.701Z,101816.73
2018-02-22T15:01:41.805Z,101821.56
2018-02-22T15:04:09.908Z,101819.13
2018-02-22T15:06:38.048Z,101828.64
2018-02-22T15:09:06.159Z,101817.72
2018-02-22T15:11:34.300Z,101820.89
2018-02-22T15:14:02.465Z,101825.31
2018-02-22T15:16:30.573Z,101828.72
2018-02-22T15:18:58.689Z,101828.91
2018-02-22T15:21:26.809Z,101834.47
2018-02-22T15:23:55.055Z,101822.80
2018-02-22T15:26:23.178Z,101821.67
2018-02-22T15:28:51.300Z,101828.12
2018-02-22T15:31:19.700Z,101828.16
2018-02-22T15:33:47.833Z,101821.59
2018-02-22T15:36:15.970Z,101827.98
2018-02-22T15:38:44.092Z,101836.58
2018-02-22T15:41:12.204Z,101830.02
2018-02-22T15:43:40.342Z,101827.79
2018-02-22T15:46:08.479Z,101838.86
2018-02-22T15:48:36.697Z,101833.95
2018-02-22T15:51:04.802Z,101828.52
2018-02-22T15:53:32.936Z,101834.98
2018-02-22T15:56:01.045Z,101840.41
2018-02-22T15:58:29.176Z,101839.33
2018-02-22T16:00:57.301Z,101837.17
2018-02-22T16:03:25.432Z,101846.59
2018-02-22T16:05:53.544Z,101841.35
2018-02-22T16:08:21.650Z,101850.36
2018-02-22T16:10:49.776Z,101848.27
2018-02-22T16:13:18.014Z,101852.84
2018-02-22T16:15:46.145Z,101842.59
2018-02-22T16:18:14.331Z,101838.10
2018-02-22T16:20:42.444Z,101841.64
2018-02-22T16:23:10.573Z,101848.98
2018-02-22T16:25:38.699Z,101849.44
2018-02-22T16:28:06.825Z,101844.95
2018-02-22T16:30:34.966Z,101850.60
2018-02-22T16:33:03.114Z,101853.55
2018-02-22T16:35:31.242Z,101844.23
2018-02-22T16:37:59.374Z,101851.04
2018-02-22T16:40:27.578Z,101851.27
2018-02-22T16:42:55.682Z,101859.36
2018-02-22T16:45:27.434Z,101853.03
2018-02-22T16:47:55.564Z,101854.28
2018-02-22T16:50:23.696Z,101867.27
2018-02-22T16:52:51.806Z,101863.70
2018-02-22T16:55:19.923Z,101866.81
2018-02-22T16:57:51.228Z,101866.17
2018-02-22T17:00:19.355Z,101863.25
2018-02-22T17:02:47.490Z,101861.33
2018-02-22T17:05:15.600Z,101869.42
2018-02-22T17:07:43.739Z,101872.80
2018-02-22T17:10:11.862Z,101880.09
2018-02-22T17:12:39.982Z,101876.94
2018-02-22T17:15:08.116Z,101883.30
2018-02-22T17:17:45.216Z,101885.83
2018-02-22T17:20:13.336Z,101878.05
2018-02-22T17:22:41.439Z,101882.99
2018-02-22T17:25:09.567Z,101884.27
2018-02-22T17:27:43.325Z,101879.49
2018-02-22T17:30:17.035Z,101893.35
2018-02-22T17:32:45.229Z,101887.56
2018-02-22T17:38:38.211Z,101883.77
2018-02-22T17:41:06.346Z,101888.27
2018-02-22T17:43:34.479Z,101895.85
2018-02-22T17:46:02.591Z,101906.39
2018-02-22T17:48:30.733Z,101898.40
2018-02-22T17:50:58.906Z,101899.11
2018-02-22T17:53:27.026Z,101896.60
2018-02-22T17:55:55.277Z,101897.47
2018-02-22T17:58:23.773Z,101898.72
2018-02-22T18:01:03.742Z,101901.88
2018-02-22T18:03:31.837Z,101904.70
2018-02-22T18:05:59.949Z,101906.29
2018-02-22T18:08:28.093Z,101910.06
2018-02-22T18:10:56.218Z,101899.42
2018-02-22T18:13:24.354Z,101903.02
2018-02-22T18:15:52.460Z,101899.69
2018-02-22T18:18:20.595Z,101911.20
2018-02-22T18:20:48.733Z,101906.91
2018-02-22T18:23:16.960Z,101907.63
2018-02-22T18:25:45.154Z,101918.31
2018-02-22T18:28:13.284Z,101922.28
2018-02-22T18:30:41.430Z,101928.13
2018-02-22T18:33:09.568Z,101936.65
2018-02-22T18:35:37.785Z,101948.50
2018-02-22T18:38:05.931Z,101947.09
2018-02-22T18:40:39.631Z,101945.97
2018-02-22T18:43:13.471Z,101944.30
2018-02-22T18:45:41.581Z,101952.91
2018-02-22T18:48:09.704Z,101940.02
2018-02-22T18:50:37.828Z,101944.66
2018-02-22T18:53:05.956Z,101947.13
2018-02-22T18:55:34.068Z,101946.92
2018-02-22T18:58:02.171Z,101952.56
2018-02-22T19:00:30.397Z,101953.80
2018-02-22T19:03:01.444Z,101953.11
2018-02-22T19:05:33.252Z,101956.79
2018-02-22T19:08:01.338Z,101966.02
2018-02-22T19:10:29.453Z,101958.73
2018-02-22T19:12:57.568Z,101957.62
2018-02-22T19:15:25.687Z,101962.72
2018-02-22T19:17:53.816Z,101956.48
2018-02-22T19:20:21.941Z,101958.63
2018-02-22T19:22:53.674Z,101959.00
2018-02-22T19:25:21.808Z,101959.98
2018-02-22T19:27:49.937Z,101956.79
2018-02-22T19:30:18.035Z,101951.15
2018-02-22T19:32:46.212Z,101951.17
2018-02-22T19:35:14.333Z,101945.41
2018-02-22T19:37:42.463Z,101946.92
2018-02-22T19:40:10.569Z,101954.55
2018-02-22T19:42:38.679Z,101945.93
2018-02-22T19:45:06.818Z,101947.02
2018-02-22T19:47:34.944Z,101950.73
2018-02-22T19:50:03.065Z,101956.57
2018-02-22T19:52:31.181Z,101951.70
2018-02-22T19:54:59.326Z,101954.13
2018-02-22T19:57:27.451Z,101958.77
2018-02-22T19:59:55.599Z,101963.26
2018-02-22T20:02:23.729Z,101963.87
2018-02-22T20:04:51.856Z,101972.81
2018-02-22T20:07:19.961Z,101962.59
2018-02-22T20:09:48.076Z,101965.44
2018-02-22T20:12:16.210Z,101971.56
2018-02-22T20:14:44.328Z,101967.41
2018-02-22T20:17:12.444Z,101971.81
2018-02-22T20:19:40.563Z,101966.28
2018-02-22T20:22:08.681Z,101964.41
2018-02-22T20:24:36.813Z,101968.30
2018-02-22T20:27:04.938Z,101961.23
2018-02-22T20:29:33.057Z,101964.07
2018-02-22T20:32:05.052Z,101961.13
2018-02-22T20:34:33.181Z,101972.36
2018-02-22T20:37:01.327Z,101968.70
2018-02-22T20:39:29.459Z,101966.03
2018-02-22T20:41:57.578Z,101962.27
2018-02-22T20:44:25.693Z,101967.02
2018-02-22T20:46:53.829Z,101972.34
2018-02-22T20:49:21.973Z,101962.52
2018-02-22T20:51:51.950Z,101964.00
2018-02-22T20:54:20.089Z,101954.64
2018-02-22T20:56:48.201Z,101959.73
2018-02-22T20:59:17.063Z,101956.89
2018-02-22T21:01:45.158Z,101959.66
2018-02-22T21:04:14.176Z,101957.58
2018-02-22T21:06:42.310Z,101953.19
2018-02-22T21:09:10.462Z,101957.58
2018-02-22T21:11:38.599Z,101952.68
2018-02-22T21:14:06.721Z,101957.71
2018-02-22T21:16:34.824Z,101953.89
2018-02-22T21:19:02.958Z,101959.34
2018-02-22T21:21:31.065Z,101959.83
2018-02-22T21:23:59.196Z,101963.12
2018-02-22T21:26:27.323Z,101959.48
2018-02-22T21:28:55.435Z,101959.67
2018-02-22T21:31:23.603Z,101964.52
2018-02-22T21:33:51.721Z,101965.35
2018-02-22T21:36:19.866Z,101963.52
2018-02-22T21:38:47.962Z,101957.86
2018-02-22T21:41:16.087Z,101963.97
2018-02-22T21:43:44.223Z,101958.50
2018-02-22T21:46:13.245Z,101962.83
2018-02-22T21:48:41.390Z,101961.45
2018-02-22T21:51:12.765Z,101969.75
2018-02-22T21:53:40.909Z,101966.06
2018-02-22T21:56:09.046Z,101965.50
2018-02-22T21:58:37.145Z,101974.70
2018-02-22T22:01:05.297Z,101970.87
2018-02-22T22:03:33.408Z,101971.98
2018-02-22T22:06:01.702Z,101971.52
2018-02-22T22:08:29.811Z,101974.56
2018-02-22T22:10:57.916Z,101971.71
2018-02-22T22:13:26.035Z,101973.95
2018-02-22T22:15:54.152Z,101968.61
2018-02-22T22:18:22.280Z,101967.83
2018-02-22T22:20:50.392Z,101966.58
2018-02-22T22:23:18.515Z,101956.39
2018-02-22T22:25:46.644Z,101966.02
2018-02-22T22:28:14.775Z,101968.69
2018-02-22T22:30:42.893Z,101974.49
2018-02-22T22:33:10.999Z,101970.70
2018-02-22T22:35:39.124Z,101971.95
2018-02-22T22:38:07.232Z,101972.86
2018-02-22T22:40:35.369Z,101962.47
2018-02-22T22:43:03.484Z,101959.80
2018-02-22T22:45:31.600Z,101960.56
2018-02-22T22:47:59.715Z,101966.38
2018-02-22T22:50:27.837Z,101963.69
2018-02-22T22:52:55.967Z,101955.91
2018-02-22T22:55:24.077Z,101948.99
2018-02-22T22:57:52.275Z,101951.64
2018-02-22T23:00:22.325Z,101950.85
2018-02-22T23:02:50.455Z,101947.59
2018-02-22T23:05:18.593Z,101951.75
2018-02-22T23:07:46.715Z,101944.80
2018-02-22T23:10:14.833Z,101953.45
2018-02-22T23:12:42.961Z,101953.67
2018-02-22T23:15:11.076Z,101957.12
2018-02-22T23:17:39.191Z,101948.61
2018-02-22T23:20:07.329Z,101949.40
2018-02-22T23:22:35.431Z,101956.82
2018-02-22T23:25:03.535Z,101947.48
2018-02-22T23:27:31.709Z,101951.91
2018-02-22T23:29:59.822Z,101950.52
2018-02-22T23:32:27.959Z,101946.08
2018-02-22T23:34:56.086Z,101940.27
2018-02-22T23:37:24.193Z,101939.45
2018-02-22T23:39:52.330Z,101937.70
2018-02-22T23:42:23.823Z,101944.05
2018-02-22T23:44:51.956Z,101940.15
2018-02-22T23:47:20.067Z,101940.57
2018-02-22T23:49:48.176Z,101936.84
2018-02-22T23:52:16.325Z,101930.51
2018-02-22T23:54:44.441Z,101932.27
2018-02-22T23:57:12.565Z,101924.25
2018-02-22T23:59:40.691Z,101928.66
